createdAt,value
2022-12-18T00:04:30.001Z,47.27
2022-12-18T00:06:03.406Z,65.83
2022-12-18T00:09:11.445Z,60.70
2022-12-18T00:10:45.686Z,58.77
2022-12-18T00:13:58.305Z,70.17
2022-12-18T00:15:31.183Z,57.03
2022-12-18T00:17:04.463Z,63.22
2022-12-18T00:18:36.802Z,67.65
2022-12-18T00:20:11.324Z,66.65
2022-12-18T00:21:45.597Z,74.60
2022-12-18T00:23:18.594Z,70.57
2022-12-18T00:24:51.553Z,69.75
2022-12-18T00:26:27.013Z,74.38
2022-12-18T00:27:59.972Z,65.47
2022-12-18T00:29:33.222Z,60.83
2022-12-18T00:31:06.787Z,64.13
2022-12-18T00:32:39.817Z,63.30
2022-12-18T00:34:13.994Z,74.40
2022-12-18T00:35:46.137Z,64.27
2022-12-18T00:37:20.343Z,69.33
2022-12-18T00:38:53.291Z,62.43
2022-12-18T00:40:26.149Z,65.85
2022-12-18T00:42:17.688Z,59.42
2022-12-18T00:43:49.557Z,58.10
2022-12-18T00:45:22.527Z,47.80
2022-12-18T00:46:55.476Z,54.08
2022-12-18T00:48:28.323Z,53.45
2022-12-18T00:50:01.971Z,55.03
2022-12-18T00:51:35.191Z,56.57
2022-12-18T00:53:08.419Z,56.78
2022-12-18T00:54:40.380Z,52.38
2022-12-18T00:56:14.377Z,53.07
2022-12-18T00:57:48.689Z,51.00
2022-12-18T00:59:20.743Z,53.03
2022-12-18T01:00:53.948Z,53.53
2022-12-18T01:02:27.006Z,60.55
2022-12-18T01:04:02.430Z,53.63
2022-12-18T01:05:34.778Z,60.60
2022-12-18T01:07:07.755Z,55.77
2022-12-18T01:08:40.108Z,59.05
2022-12-18T01:10:14.687Z,51.88
2022-12-18T01:11:47.594Z,48.10
2022-12-18T01:13:20.883Z,50.15
2022-12-18T01:16:26.811Z,45.70
2022-12-18T01:17:59.145Z,47.33
2022-12-18T01:19:32.258Z,47.03
2022-12-18T01:21:08.702Z,43.08
2022-12-18T01:22:42.006Z,53.30
2022-12-18T01:25:46.870Z,39.60
2022-12-18T01:27:20.122Z,45.23
2022-12-18T01:28:56.407Z,45.22
2022-12-18T01:30:28.614Z,48.10
2022-12-18T01:32:01.543Z,56.40
2022-12-18T01:33:33.483Z,58.25
2022-12-18T01:35:07.580Z,51.07
2022-12-18T01:36:40.945Z,56.77
2022-12-18T01:39:45.709Z,48.53
2022-12-18T01:41:21.657Z,58.92
2022-12-18T01:42:53.646Z,55.37
2022-12-18T01:45:00.662Z,66.83
2022-12-18T01:46:33.622Z,59.33
2022-12-18T01:48:09.542Z,61.78
2022-12-18T01:49:42.881Z,59.47
2022-12-18T01:52:50.909Z,59.00
2022-12-18T01:54:23.849Z,70.37
2022-12-18T01:55:59.033Z,66.18
2022-12-18T01:57:32.544Z,66.87
2022-12-18T01:59:09.917Z,60.37
2022-12-18T02:00:43.530Z,61.57
2022-12-18T02:02:19.716Z,57.03
2022-12-18T02:03:53.370Z,51.13
2022-12-18T02:05:36.103Z,48.57
2022-12-18T02:07:16.268Z,46.70
2022-12-18T02:08:59.965Z,49.37
2022-12-18T02:10:34.733Z,49.88
2022-12-18T02:12:15.743Z,45.93
2022-12-18T02:13:59.514Z,40.27
2022-12-18T02:17:13.225Z,40.65
2022-12-18T02:18:49.766Z,45.73
2022-12-18T02:20:30.066Z,41.77
2022-12-18T02:22:19.665Z,47.80
2022-12-18T02:23:58.207Z,40.83
2022-12-18T02:25:59.770Z,50.37
2022-12-18T02:27:35.939Z,48.00
2022-12-18T02:29:14.133Z,42.57
2022-12-18T02:30:51.288Z,50.20
2022-12-18T02:32:27.498Z,55.80
2022-12-18T02:34:03.278Z,56.43
2022-12-18T02:35:38.351Z,45.37
2022-12-18T02:37:13.878Z,49.20
2022-12-18T02:38:48.076Z,56.10
2022-12-18T02:40:22.752Z,50.50
2022-12-18T02:41:54.889Z,54.13
2022-12-18T02:43:29.199Z,54.70
2022-12-18T02:45:02.110Z,50.43
2022-12-18T02:46:37.518Z,53.22
2022-12-18T02:48:10.833Z,58.40
2022-12-18T02:49:51.698Z,52.60
2022-12-18T02:51:33.571Z,44.80
2022-12-18T02:53:16.125Z,51.90
2022-12-18T02:54:58.796Z,53.13
2022-12-18T02:56:37.412Z,50.97
2022-12-18T02:58:17.830Z,50.43
2022-12-18T03:00:00.505Z,47.63
2022-12-18T03:01:37.857Z,53.57
2022-12-18T03:03:18.752Z,47.17
2022-12-18T03:05:00.646Z,58.43
2022-12-18T03:06:39.222Z,57.93
2022-12-18T03:08:16.025Z,48.53
2022-12-18T03:09:51.368Z,51.17
2022-12-18T03:11:44.508Z,55.43
2022-12-18T03:13:21.585Z,45.70
2022-12-18T03:15:00.020Z,47.77
2022-12-18T03:16:35.463Z,48.57
2022-12-18T03:18:18.315Z,50.93
2022-12-18T03:19:52.765Z,49.33
2022-12-18T03:21:31.855Z,49.33
2022-12-18T03:23:09.507Z,46.07
2022-12-18T03:24:42.600Z,50.97
2022-12-18T03:26:18.930Z,48.35
2022-12-18T03:27:56.317Z,44.80
2022-12-18T03:29:35.018Z,40.57
2022-12-18T03:31:11.938Z,41.40
2022-12-18T03:32:49.980Z,46.37
2022-12-18T03:34:29.063Z,47.03
2022-12-18T03:36:02.262Z,46.77
2022-12-18T03:37:35.689Z,43.97
2022-12-18T03:40:51.783Z,47.17
2022-12-18T03:42:29.945Z,45.13
2022-12-18T03:44:12.628Z,44.17
2022-12-18T03:45:54.132Z,44.77
2022-12-18T03:47:32.637Z,46.07
2022-12-18T03:49:13.036Z,51.23
2022-12-18T03:50:50.754Z,38.37
2022-12-18T03:52:33.750Z,45.73
2022-12-18T03:54:08.876Z,38.65
2022-12-18T03:55:42.022Z,45.83
2022-12-18T03:57:20.161Z,47.72
2022-12-18T03:58:55.181Z,54.30
2022-12-18T04:00:28.465Z,46.13
2022-12-18T04:02:03.835Z,38.17
2022-12-18T04:03:40.227Z,43.30
2022-12-18T04:05:13.998Z,46.63
2022-12-18T04:06:49.076Z,38.00
2022-12-18T04:08:22.517Z,52.33
2022-12-18T04:11:29.592Z,44.27
2022-12-18T04:13:02.549Z,45.43
2022-12-18T04:14:36.598Z,38.63
2022-12-18T04:16:10.262Z,45.70
2022-12-18T04:17:50.453Z,44.17
2022-12-18T04:19:24.815Z,42.80
2022-12-18T04:20:58.068Z,47.03
2022-12-18T04:22:31.245Z,39.22
2022-12-18T04:24:03.220Z,46.30
2022-12-18T04:25:36.118Z,41.77
2022-12-18T04:27:09.046Z,39.88
2022-12-18T04:28:41.415Z,38.78
2022-12-18T04:30:14.454Z,43.67
2022-12-18T04:31:47.329Z,38.60
2022-12-18T04:33:20.926Z,42.92
2022-12-18T04:34:54.195Z,38.90
2022-12-18T04:36:28.527Z,45.78
2022-12-18T04:38:00.748Z,38.50
2022-12-18T04:39:33.702Z,44.87
2022-12-18T04:41:07.044Z,37.40
2022-12-18T04:44:12.994Z,40.47
2022-12-18T04:45:48.015Z,34.85
2022-12-18T04:47:25.726Z,39.67
2022-12-18T04:48:58.704Z,38.13
2022-12-18T04:50:33.337Z,42.45
2022-12-18T04:52:06.472Z,47.10
2022-12-18T04:53:38.756Z,37.22
2022-12-18T04:55:11.950Z,36.50
2022-12-18T04:56:44.782Z,40.08
2022-12-18T04:58:17.917Z,45.20
2022-12-18T04:59:50.814Z,39.13
2022-12-18T05:01:24.753Z,39.10
2022-12-18T05:03:02.598Z,42.57
2022-12-18T05:04:35.808Z,47.93
2022-12-18T05:06:09.480Z,45.63
2022-12-18T05:07:42.348Z,38.73
2022-12-18T05:09:15.458Z,42.90
2022-12-18T05:10:48.660Z,44.45
2022-12-18T05:12:20.686Z,37.65
2022-12-18T05:13:53.575Z,43.00
2022-12-18T05:15:27.767Z,38.50
2022-12-18T05:17:01.558Z,44.90
2022-12-18T05:18:34.555Z,44.67
2022-12-18T05:20:07.975Z,40.05
2022-12-18T05:23:15.337Z,40.37
2022-12-18T05:24:47.270Z,35.88
2022-12-18T05:26:20.515Z,42.67
2022-12-18T05:27:52.446Z,44.88
2022-12-18T05:29:25.630Z,37.70
2022-12-18T05:31:01.047Z,39.80
2022-12-18T05:32:34.102Z,43.03
2022-12-18T05:34:07.081Z,46.38
2022-12-18T05:35:39.944Z,35.83
2022-12-18T05:37:14.607Z,43.47
2022-12-18T05:38:47.598Z,36.97
2022-12-18T05:40:20.606Z,42.50
2022-12-18T05:41:53.498Z,38.03
2022-12-18T05:43:27.790Z,44.15
2022-12-18T05:45:00.646Z,39.90
2022-12-18T05:46:33.881Z,35.78
2022-12-18T05:48:07.612Z,42.25
2022-12-18T05:49:40.677Z,37.67
2022-12-18T05:51:16.417Z,40.20
2022-12-18T05:52:50.691Z,37.03
2022-12-18T05:54:23.663Z,34.80
2022-12-18T05:55:56.572Z,43.40
2022-12-18T05:57:29.536Z,44.90
2022-12-18T05:59:02.418Z,44.20
2022-12-18T06:00:40.721Z,44.17
2022-12-18T06:02:13.682Z,39.17
2022-12-18T06:03:47.159Z,44.97
2022-12-18T06:05:20.373Z,36.17
2022-12-18T06:06:54.033Z,41.53
2022-12-18T06:08:27.463Z,41.33
2022-12-18T06:10:00.275Z,43.10
2022-12-18T06:11:32.144Z,44.60
2022-12-18T06:13:05.458Z,40.00
2022-12-18T06:14:38.324Z,39.70
2022-12-18T06:16:11.489Z,38.65
2022-12-18T06:17:43.530Z,39.22
2022-12-18T06:19:18.394Z,39.97
2022-12-18T06:20:57.699Z,43.07
2022-12-18T06:22:32.345Z,44.90
2022-12-18T06:24:07.322Z,38.63
2022-12-18T06:25:40.189Z,39.93
2022-12-18T06:27:13.445Z,41.42
2022-12-18T06:28:46.558Z,40.33
2022-12-18T06:30:19.570Z,43.40
2022-12-18T06:31:52.606Z,42.70
2022-12-18T06:33:28.906Z,33.50
2022-12-18T06:35:01.779Z,45.03
2022-12-18T06:36:34.663Z,38.88
2022-12-18T06:38:06.537Z,35.67
2022-12-18T06:39:40.788Z,42.70
2022-12-18T06:41:15.722Z,40.73
2022-12-18T06:42:48.679Z,38.07
2022-12-18T06:44:21.978Z,44.40
2022-12-18T06:46:01.131Z,43.20
2022-12-18T06:47:34.100Z,43.53
2022-12-18T06:49:07.074Z,38.90
2022-12-18T06:50:42.782Z,43.72
2022-12-18T06:52:18.601Z,41.70
2022-12-18T06:53:51.642Z,45.60
2022-12-18T06:55:25.873Z,40.83
2022-12-18T06:56:58.702Z,39.27
2022-12-18T06:58:31.605Z,47.28
2022-12-18T07:00:06.245Z,38.42
2022-12-18T07:01:39.257Z,40.53
2022-12-18T07:03:12.618Z,46.90
2022-12-18T07:04:45.570Z,40.38
2022-12-18T07:06:20.235Z,44.75
2022-12-18T07:07:53.178Z,40.03
2022-12-18T07:09:26.509Z,45.20
2022-12-18T07:11:01.196Z,37.83
2022-12-18T07:12:34.057Z,44.40
2022-12-18T07:14:06.936Z,42.40
2022-12-18T07:15:39.895Z,43.10
2022-12-18T07:17:13.272Z,41.40
2022-12-18T07:20:19.466Z,35.50
2022-12-18T07:21:52.749Z,47.90
2022-12-18T07:23:24.990Z,47.30
2022-12-18T07:24:57.948Z,44.50
2022-12-18T07:26:32.172Z,39.03
2022-12-18T07:28:05.926Z,44.73
2022-12-18T07:29:38.833Z,42.93
2022-12-18T07:31:14.162Z,44.77
2022-12-18T07:32:47.146Z,41.77
2022-12-18T07:34:20.047Z,37.10
2022-12-18T07:35:52.948Z,39.72
2022-12-18T07:37:25.899Z,36.17
2022-12-18T07:38:58.864Z,36.35
2022-12-18T07:40:31.707Z,45.40
2022-12-18T07:42:23.555Z,47.47
2022-12-18T07:43:57.801Z,48.93
2022-12-18T07:45:30.650Z,46.05
2022-12-18T07:47:06.639Z,44.83
2022-12-18T07:48:45.524Z,42.47
2022-12-18T07:50:22.498Z,43.30
2022-12-18T07:51:57.042Z,38.03
2022-12-18T07:53:30.292Z,39.30
2022-12-18T07:55:03.218Z,36.63
2022-12-18T07:56:36.076Z,37.65
2022-12-18T07:58:10.702Z,36.42
2022-12-18T07:59:43.622Z,38.30
2022-12-18T08:01:16.615Z,36.92
2022-12-18T08:02:50.237Z,35.77
2022-12-18T08:04:23.168Z,36.78
2022-12-18T08:06:00.974Z,36.72
2022-12-18T08:07:33.934Z,34.27
2022-12-18T08:09:06.862Z,34.63
2022-12-18T08:10:40.157Z,40.95
2022-12-18T08:12:13.062Z,40.20
2022-12-18T08:13:47.297Z,35.75
2022-12-18T08:15:20.358Z,42.67
2022-12-18T08:16:53.327Z,37.00
2022-12-18T08:18:26.558Z,41.33
2022-12-18T08:19:59.552Z,44.15
2022-12-18T08:21:33.557Z,38.97
2022-12-18T08:23:06.602Z,43.13
2022-12-18T08:24:39.970Z,39.95
2022-12-18T08:26:14.003Z,40.60
2022-12-18T08:27:47.340Z,43.23
2022-12-18T08:29:21.911Z,37.90
2022-12-18T08:30:55.204Z,41.80
2022-12-18T08:32:29.386Z,37.15
2022-12-18T08:34:02.657Z,44.73
2022-12-18T08:35:44.101Z,39.85
2022-12-18T08:37:18.673Z,40.78
2022-12-18T08:38:52.257Z,41.22
2022-12-18T08:40:25.571Z,40.63
2022-12-18T08:42:16.027Z,45.00
2022-12-18T08:44:06.618Z,43.30
2022-12-18T08:45:41.070Z,46.53
2022-12-18T08:47:14.019Z,36.77
2022-12-18T08:48:47.284Z,36.53
2022-12-18T08:50:20.995Z,40.25
2022-12-18T08:51:57.992Z,38.17
2022-12-18T08:53:35.424Z,31.40
2022-12-18T08:55:10.402Z,32.30
2022-12-18T08:56:43.484Z,30.63
2022-12-18T08:58:16.845Z,30.52
2022-12-18T08:59:50.139Z,26.33
2022-12-18T09:01:25.376Z,29.33
2022-12-18T09:02:58.478Z,30.53
2022-12-18T09:04:31.464Z,31.75
2022-12-18T09:06:04.529Z,31.58
2022-12-18T09:07:37.485Z,33.72
2022-12-18T09:09:12.155Z,31.83
2022-12-18T09:10:46.274Z,30.73
2022-12-18T09:12:19.325Z,32.10
2022-12-18T09:13:52.673Z,35.25
2022-12-18T09:16:59.800Z,29.47
2022-12-18T09:18:32.708Z,35.17
2022-12-18T09:20:06.472Z,30.38
2022-12-18T09:21:43.383Z,29.70
2022-12-18T09:23:19.238Z,30.13
2022-12-18T09:24:52.210Z,28.08
2022-12-18T09:26:27.074Z,26.20
2022-12-18T09:28:00.395Z,31.80
2022-12-18T09:29:34.996Z,26.97
2022-12-18T09:32:43.210Z,26.35
2022-12-18T09:34:16.114Z,25.37
2022-12-18T09:35:49.376Z,24.88
2022-12-18T09:37:22.373Z,24.02
2022-12-18T09:38:55.693Z,23.48
2022-12-18T09:40:41.875Z,25.60
2022-12-18T09:42:22.095Z,28.13
2022-12-18T09:44:00.203Z,24.17
2022-12-18T09:45:41.087Z,27.70
2022-12-18T09:47:18.164Z,26.67
2022-12-18T09:48:56.562Z,28.77
2022-12-18T09:50:34.862Z,28.97
2022-12-18T09:52:14.689Z,24.50
2022-12-18T09:54:03.498Z,29.27
2022-12-18T09:55:39.834Z,28.63
2022-12-18T09:57:16.359Z,22.60
2022-12-18T09:58:55.197Z,28.43
2022-12-18T10:00:28.247Z,27.33
2022-12-18T10:02:01.332Z,26.38
2022-12-18T10:03:34.730Z,27.73
2022-12-18T10:05:13.245Z,30.98
2022-12-18T10:06:54.730Z,26.23
2022-12-18T10:08:35.898Z,29.20
2022-12-18T10:10:14.747Z,27.87
2022-12-18T10:11:56.424Z,28.40
2022-12-18T10:13:39.634Z,25.77
2022-12-18T10:15:22.245Z,26.92
2022-12-18T10:17:04.758Z,28.87
2022-12-18T10:18:59.830Z,28.20
2022-12-18T10:20:40.653Z,27.63
2022-12-18T10:22:24.837Z,28.37
2022-12-18T10:24:04.927Z,27.60
2022-12-18T10:25:49.085Z,28.40
2022-12-18T10:27:26.117Z,28.00
2022-12-18T10:29:05.479Z,33.50
2022-12-18T10:30:43.748Z,28.57
2022-12-18T10:32:19.158Z,28.73
2022-12-18T10:33:53.072Z,28.93
2022-12-18T10:35:28.795Z,27.53
2022-12-18T10:37:08.367Z,24.97
2022-12-18T10:38:41.937Z,23.93
2022-12-18T10:40:21.774Z,29.00
2022-12-18T10:42:13.958Z,29.10
2022-12-18T10:43:47.310Z,29.53
2022-12-18T10:45:20.283Z,29.20
2022-12-18T10:46:57.777Z,28.92
2022-12-18T10:48:33.138Z,26.77
2022-12-18T10:50:06.702Z,26.13
2022-12-18T10:51:40.020Z,28.23
2022-12-18T10:53:22.402Z,31.10
2022-12-18T10:54:59.247Z,28.77
2022-12-18T10:56:35.418Z,29.83
2022-12-18T10:58:26.982Z,34.00
2022-12-18T11:00:01.998Z,30.37
2022-12-18T11:01:52.395Z,33.17
2022-12-18T11:03:36.533Z,26.10
2022-12-18T11:05:28.720Z,28.10
2022-12-18T11:07:03.887Z,25.43
2022-12-18T11:08:39.059Z,27.73
2022-12-18T11:10:18.500Z,28.57
2022-12-18T11:11:53.274Z,34.87
2022-12-18T11:13:28.793Z,28.80
2022-12-18T11:15:01.876Z,30.33
2022-12-18T11:16:39.454Z,28.13
2022-12-18T11:18:21.048Z,30.63
2022-12-18T11:19:59.031Z,30.97
2022-12-18T11:21:32.445Z,30.87
2022-12-18T11:24:41.969Z,31.90
2022-12-18T11:26:15.388Z,30.90
2022-12-18T11:29:30.618Z,27.57
2022-12-18T11:31:29.235Z,30.27
2022-12-18T11:33:07.334Z,27.97
2022-12-18T11:34:41.434Z,28.40
2022-12-18T11:36:16.148Z,27.23
2022-12-18T11:37:55.272Z,26.70
2022-12-18T11:39:36.073Z,31.87
2022-12-18T11:41:21.711Z,30.37
2022-12-18T11:43:00.268Z,30.33
2022-12-18T11:44:40.403Z,27.97
2022-12-18T11:46:19.865Z,31.27
2022-12-18T11:47:59.521Z,25.27
2022-12-18T11:49:36.251Z,28.93
2022-12-18T11:51:16.720Z,31.40
2022-12-18T11:52:55.958Z,31.70
2022-12-18T11:54:30.964Z,30.57
2022-12-18T11:57:57.248Z,25.27
2022-12-18T11:59:42.157Z,34.30
2022-12-18T12:01:35.591Z,31.00
2022-12-18T12:03:52.867Z,32.23
2022-12-18T12:05:43.087Z,27.30
2022-12-18T12:07:33.437Z,30.40
2022-12-18T12:09:15.505Z,28.97
2022-12-18T12:10:58.828Z,30.17
2022-12-18T12:12:48.957Z,32.88
2022-12-18T12:14:41.658Z,28.90
2022-12-18T12:16:21.979Z,29.30
2022-12-18T12:18:00.130Z,30.90
2022-12-18T12:19:42.980Z,31.33
2022-12-18T12:21:25.789Z,30.17
2022-12-18T12:23:07.573Z,38.20
2022-12-18T12:24:52.857Z,37.07
2022-12-18T12:26:35.441Z,29.87
2022-12-18T12:28:18.765Z,29.47
2022-12-18T12:30:05.602Z,30.10
2022-12-18T12:31:53.391Z,26.07
2022-12-18T12:33:41.792Z,32.90
2022-12-18T12:35:30.960Z,28.73
2022-12-18T12:37:20.265Z,30.20
2022-12-18T12:38:57.282Z,27.77
2022-12-18T12:40:53.897Z,29.27
2022-12-18T12:42:51.044Z,27.67
2022-12-18T12:44:28.140Z,29.67
2022-12-18T12:46:09.090Z,28.70
2022-12-18T12:47:45.971Z,28.33
2022-12-18T12:49:23.099Z,27.90
2022-12-18T12:50:58.279Z,29.37
2022-12-18T12:52:36.842Z,30.13
2022-12-18T12:54:22.890Z,29.77
2022-12-18T12:55:56.893Z,26.80
2022-12-18T12:57:36.504Z,27.00
2022-12-18T12:59:16.115Z,25.97
2022-12-18T13:00:57.605Z,32.27
2022-12-18T13:02:37.961Z,28.53
2022-12-18T13:04:23.368Z,28.83
2022-12-18T13:06:01.322Z,31.10
2022-12-18T13:07:39.990Z,27.00
2022-12-18T13:09:13.346Z,32.73
2022-12-18T13:10:46.909Z,32.57
2022-12-18T13:12:38.692Z,32.67
2022-12-18T13:14:22.646Z,29.97
2022-12-18T13:17:40.893Z,29.30
2022-12-18T13:19:27.935Z,29.93
2022-12-18T13:21:10.195Z,27.23
2022-12-18T13:22:46.926Z,29.53
2022-12-18T13:24:27.189Z,28.77
2022-12-18T13:26:01.688Z,30.03
2022-12-18T13:27:55.507Z,31.33
2022-12-18T13:32:13.716Z,33.30
2022-12-18T13:35:55.028Z,32.93
2022-12-18T13:37:54.041Z,29.15
2022-12-18T13:39:36.076Z,31.30
2022-12-18T13:41:26.114Z,28.60
2022-12-18T13:43:14.727Z,30.43
2022-12-18T13:44:48.338Z,26.10
2022-12-18T13:46:29.104Z,30.60
2022-12-18T13:48:02.158Z,30.40
2022-12-18T13:49:41.803Z,27.00
2022-12-18T13:51:19.761Z,26.03
2022-12-18T13:52:54.489Z,30.10
2022-12-18T13:54:34.566Z,25.80
2022-12-18T13:56:08.155Z,28.10
2022-12-18T13:57:41.956Z,32.33
2022-12-18T14:00:49.801Z,27.67
2022-12-18T14:02:25.031Z,29.63
2022-12-18T14:04:11.514Z,30.97
2022-12-18T14:05:48.043Z,27.17
2022-12-18T14:07:24.912Z,30.07
2022-12-18T14:09:00.683Z,31.47
2022-12-18T14:10:48.676Z,27.70
2022-12-18T14:12:43.708Z,29.67
2022-12-18T14:14:19.252Z,34.97
2022-12-18T14:15:53.711Z,31.80
2022-12-18T14:17:27.052Z,33.57
2022-12-18T14:19:11.781Z,28.63
2022-12-18T14:20:53.263Z,28.87
2022-12-18T14:22:30.488Z,30.97
2022-12-18T14:24:14.125Z,32.70
2022-12-18T14:27:24.970Z,29.35
2022-12-18T14:28:58.939Z,28.73
2022-12-18T14:30:33.963Z,29.67
2022-12-18T14:32:18.267Z,27.70
2022-12-18T14:33:51.930Z,30.98
2022-12-18T14:35:23.980Z,29.63
2022-12-18T14:36:58.317Z,29.27
2022-12-18T14:38:35.205Z,29.13
2022-12-18T14:40:14.789Z,26.47
2022-12-18T14:41:50.296Z,29.67
2022-12-18T14:43:23.409Z,28.07
2022-12-18T14:45:41.001Z,27.73
2022-12-18T14:47:17.313Z,28.17
2022-12-18T14:48:50.640Z,28.03
2022-12-18T14:50:23.587Z,27.05
2022-12-18T14:52:02.969Z,27.42
2022-12-18T14:53:41.676Z,27.37
2022-12-18T14:55:18.253Z,28.37
2022-12-18T14:56:56.973Z,25.67
2022-12-18T14:58:30.214Z,30.60
2022-12-18T15:00:07.129Z,25.25
2022-12-18T15:01:48.149Z,24.27
2022-12-18T15:03:23.001Z,26.57
2022-12-18T15:05:07.238Z,29.00
2022-12-18T15:06:42.879Z,30.83
2022-12-18T15:08:44.353Z,28.60
2022-12-18T15:10:19.673Z,27.63
2022-12-18T15:11:58.445Z,25.90
2022-12-18T15:13:31.737Z,28.30
2022-12-18T15:16:40.224Z,26.73
2022-12-18T15:18:18.806Z,29.17
2022-12-18T15:19:54.249Z,34.27
2022-12-18T15:21:31.501Z,28.77
2022-12-18T15:23:04.443Z,29.33
2022-12-18T15:24:38.953Z,31.50
2022-12-18T15:26:13.955Z,27.07
2022-12-18T15:27:49.283Z,28.63
2022-12-18T15:29:23.828Z,27.00
2022-12-18T15:31:24.842Z,30.40
2022-12-18T15:33:19.148Z,26.17
2022-12-18T15:34:52.199Z,30.17
2022-12-18T15:36:27.152Z,27.23
2022-12-18T15:38:00.314Z,30.03
2022-12-18T15:39:33.209Z,30.42
2022-12-18T15:41:13.123Z,32.60
2022-12-18T15:43:05.834Z,31.30
2022-12-18T15:44:39.347Z,28.33
2022-12-18T15:47:46.748Z,28.87
2022-12-18T15:49:19.627Z,30.20
2022-12-18T15:50:54.276Z,28.70
2022-12-18T15:52:27.417Z,29.70
2022-12-18T15:54:02.763Z,29.90
2022-12-18T15:55:56.538Z,29.93
2022-12-18T15:57:36.754Z,29.70
2022-12-18T15:59:14.397Z,29.77
2022-12-18T16:00:47.282Z,29.07
2022-12-18T16:02:21.841Z,33.55
2022-12-18T16:03:55.480Z,35.47
2022-12-18T16:05:31.027Z,29.47
2022-12-18T16:07:14.812Z,28.17
2022-12-18T16:08:48.358Z,26.43
2022-12-18T16:10:20.353Z,29.27
2022-12-18T16:11:53.266Z,33.50
2022-12-18T16:13:27.629Z,32.55
2022-12-18T16:15:00.483Z,27.57
2022-12-18T16:16:33.380Z,26.17
2022-12-18T16:18:06.567Z,30.20
2022-12-18T16:19:39.533Z,34.30
2022-12-18T16:21:12.668Z,30.85
2022-12-18T16:22:46.893Z,30.30
2022-12-18T16:24:22.794Z,31.70
2022-12-18T16:25:55.935Z,33.33
2022-12-18T16:27:28.813Z,31.92
2022-12-18T16:29:03.136Z,35.85
2022-12-18T16:30:38.036Z,40.50
2022-12-18T16:32:15.642Z,32.20
2022-12-18T16:33:48.721Z,29.70
2022-12-18T16:35:21.776Z,32.97
2022-12-18T16:36:58.923Z,32.42
2022-12-18T16:38:34.501Z,30.83
2022-12-18T16:40:09.888Z,35.97
2022-12-18T16:41:42.786Z,33.63
2022-12-18T16:43:15.648Z,32.00
2022-12-18T16:44:51.439Z,32.20
2022-12-18T16:46:24.405Z,33.27
2022-12-18T16:47:57.378Z,34.60
2022-12-18T16:49:30.567Z,33.83
2022-12-18T16:51:05.316Z,32.47
2022-12-18T16:52:38.369Z,35.03
2022-12-18T16:54:15.931Z,34.40
2022-12-18T16:55:56.322Z,34.13
2022-12-18T16:57:29.178Z,38.43
2022-12-18T16:59:03.823Z,31.77
2022-12-18T17:00:41.101Z,34.70
2022-12-18T17:02:17.192Z,33.77
2022-12-18T17:03:55.363Z,35.30
2022-12-18T17:05:28.333Z,34.07
2022-12-18T17:07:01.274Z,33.65
2022-12-18T17:08:34.469Z,42.15
2022-12-18T17:10:08.138Z,35.75
2022-12-18T17:11:41.668Z,29.50
2022-12-18T17:13:14.572Z,35.83
2022-12-18T17:14:47.486Z,37.45
2022-12-18T17:16:22.128Z,30.77
2022-12-18T17:17:55.126Z,31.57
2022-12-18T17:19:30.629Z,34.57
2022-12-18T17:21:05.952Z,31.30
2022-12-18T17:22:38.846Z,34.83
2022-12-18T17:24:11.835Z,39.20
2022-12-18T17:25:44.740Z,34.83
2022-12-18T17:27:17.725Z,35.42
2022-12-18T17:28:50.794Z,31.63
2022-12-18T17:30:23.684Z,37.53
2022-12-18T17:32:00.313Z,40.38
2022-12-18T17:33:33.417Z,32.73
2022-12-18T17:35:07.617Z,36.13
2022-12-18T17:36:41.391Z,31.60
2022-12-18T17:38:14.583Z,38.63
2022-12-18T17:39:47.515Z,35.65
2022-12-18T17:41:20.942Z,30.58
2022-12-18T17:44:26.770Z,32.07
2022-12-18T17:46:03.504Z,32.22
2022-12-18T17:47:38.542Z,30.77
2022-12-18T17:49:11.880Z,40.90
2022-12-18T17:50:45.867Z,35.60
2022-12-18T17:52:18.861Z,37.10
2022-12-18T17:53:52.210Z,37.15
2022-12-18T17:56:57.927Z,31.80
2022-12-18T17:58:30.816Z,38.83
2022-12-18T18:00:04.864Z,34.35
2022-12-18T18:01:44.045Z,35.00
2022-12-18T18:03:19.018Z,35.70
2022-12-18T18:04:51.947Z,33.70
2022-12-18T18:06:25.076Z,35.53
2022-12-18T18:08:02.348Z,37.42
2022-12-18T18:09:35.270Z,42.47
2022-12-18T18:11:27.408Z,34.15
2022-12-18T18:13:17.923Z,34.23
2022-12-18T18:14:50.814Z,32.77
2022-12-18T18:16:23.820Z,36.70
2022-12-18T18:17:56.655Z,41.00
2022-12-18T18:19:30.884Z,36.10
2022-12-18T18:21:06.261Z,37.90
2022-12-18T18:22:39.607Z,37.90
2022-12-18T18:24:14.729Z,36.95
2022-12-18T18:25:47.643Z,35.63
2022-12-18T18:27:20.515Z,32.97
2022-12-18T18:28:55.506Z,38.92
2022-12-18T18:30:30.059Z,39.70
2022-12-18T18:32:03.131Z,37.70
2022-12-18T18:33:35.397Z,37.88
2022-12-18T18:35:24.642Z,32.63
2022-12-18T18:37:04.026Z,33.30
2022-12-18T18:40:10.409Z,36.00
2022-12-18T18:41:48.355Z,35.63
2022-12-18T18:43:21.436Z,38.50
2022-12-18T18:44:54.245Z,30.05
2022-12-18T18:46:27.535Z,33.45
2022-12-18T18:48:00.506Z,33.65
2022-12-18T18:49:33.303Z,34.25
2022-12-18T18:51:09.482Z,33.08
2022-12-18T18:52:44.171Z,36.80
2022-12-18T18:54:17.878Z,36.93
2022-12-18T18:56:10.213Z,38.28
2022-12-18T18:57:43.783Z,33.97
2022-12-18T18:59:16.689Z,33.80
2022-12-18T19:00:57.175Z,37.47
2022-12-18T19:02:30.249Z,36.07
2022-12-18T19:04:03.271Z,34.35
2022-12-18T19:05:36.158Z,32.42
2022-12-18T19:07:10.457Z,32.58
2022-12-18T19:08:43.808Z,36.60
2022-12-18T19:10:17.770Z,36.07
2022-12-18T19:12:08.815Z,36.80
2022-12-18T19:13:42.024Z,36.43
2022-12-18T19:16:48.074Z,40.03
2022-12-18T19:18:21.017Z,35.90
2022-12-18T19:19:53.895Z,35.42
2022-12-18T19:21:27.140Z,35.40
2022-12-18T19:23:01.403Z,31.92
2022-12-18T19:24:34.570Z,32.90
2022-12-18T19:26:27.910Z,36.35
2022-12-18T19:28:01.432Z,28.45
2022-12-18T19:29:34.322Z,35.47
2022-12-18T19:31:12.625Z,39.77
2022-12-18T19:32:45.484Z,38.20
2022-12-18T19:34:18.483Z,33.10
2022-12-18T19:35:51.957Z,32.58
2022-12-18T19:37:24.926Z,33.43
2022-12-18T19:39:02.273Z,36.67
2022-12-18T19:40:35.529Z,41.77
2022-12-18T19:42:08.443Z,40.97
2022-12-18T19:43:41.488Z,36.30
2022-12-18T19:45:14.363Z,36.20
2022-12-18T19:46:50.500Z,37.67
2022-12-18T19:48:23.453Z,33.87
2022-12-18T19:49:56.388Z,34.65
2022-12-18T19:51:30.790Z,36.85
2022-12-18T19:53:03.855Z,32.87
2022-12-18T19:54:40.360Z,34.67
2022-12-18T19:56:15.303Z,34.43
2022-12-18T19:57:48.234Z,32.40
2022-12-18T19:59:21.085Z,33.17
2022-12-18T20:00:53.989Z,32.47
2022-12-18T20:02:27.031Z,34.47
2022-12-18T20:04:00.539Z,40.75
2022-12-18T20:05:34.656Z,37.00
2022-12-18T20:07:07.668Z,37.47
2022-12-18T20:08:41.286Z,35.28
2022-12-18T20:10:15.626Z,35.97
2022-12-18T20:11:50.342Z,33.70
2022-12-18T20:13:23.299Z,34.05
2022-12-18T20:14:56.153Z,33.30
2022-12-18T20:16:29.373Z,37.67
2022-12-18T20:18:03.636Z,32.13
2022-12-18T20:19:36.720Z,32.40
2022-12-18T20:21:13.856Z,32.78
2022-12-18T20:22:47.193Z,31.80
2022-12-18T20:24:20.095Z,33.40
2022-12-18T20:25:55.629Z,34.13
2022-12-18T20:27:28.515Z,32.47
2022-12-18T20:29:01.488Z,34.05
2022-12-18T20:30:34.430Z,35.25
2022-12-18T20:32:07.329Z,32.72
2022-12-18T20:33:41.153Z,32.70
2022-12-18T20:35:14.378Z,34.33
2022-12-18T20:36:47.366Z,33.47
2022-12-18T20:39:54.542Z,34.65
2022-12-18T20:41:31.045Z,29.97
2022-12-18T20:43:16.964Z,28.85
2022-12-18T20:44:50.257Z,31.03
2022-12-18T20:46:23.403Z,29.02
2022-12-18T20:47:56.939Z,28.25
2022-12-18T20:49:30.276Z,36.20
2022-12-18T20:51:05.602Z,30.35
2022-12-18T20:52:38.672Z,31.17
2022-12-18T20:54:12.156Z,30.33
2022-12-18T20:55:45.081Z,31.93
2022-12-18T20:57:19.329Z,30.20
2022-12-18T20:58:55.072Z,31.03
2022-12-18T21:00:28.507Z,31.10
2022-12-18T21:02:01.548Z,33.30
2022-12-18T21:03:34.778Z,33.20
2022-12-18T21:05:08.570Z,28.02
2022-12-18T21:06:42.851Z,33.63
2022-12-18T21:08:17.871Z,35.00
2022-12-18T21:09:50.796Z,30.65
2022-12-18T21:11:47.301Z,31.85
2022-12-18T21:13:21.694Z,30.30
2022-12-18T21:14:54.900Z,31.67
2022-12-18T21:16:28.099Z,29.65
2022-12-18T21:18:01.624Z,30.40
2022-12-18T21:19:34.824Z,30.80
2022-12-18T21:21:07.821Z,35.13
2022-12-18T21:22:40.715Z,32.92
2022-12-18T21:24:13.692Z,28.02
2022-12-18T21:25:46.921Z,28.30
2022-12-18T21:27:22.865Z,31.70
2022-12-18T21:28:58.630Z,30.08
2022-12-18T21:30:31.897Z,28.70
2022-12-18T21:32:06.177Z,28.77